Terminal Aerodrome Forecast
Issued by NWS

Home | Current Version | Previous Version | Text Only | Print | Product List | Glossary On
Versions: 1 2 3 4 5 6 7 8 9 10 11 12 13 14 15 16 17 18 19 20
131
FTPA31 PHFO 190212 AAB
TAFHLI
TAF AMD
PHLI 190212Z 1902/1924 02010KT P6SM SCT015 OVC025
      TEMPO 1902/1906 BKN015 BKN020=

USA.gov is the U.S. government's official web portal to all federal, state and local government web resources and services.